createdAt,value
2018-03-30T00:00:35.750Z,69.99
2018-03-30T00:05:36.697Z,70.07
2018-03-30T00:10:43.674Z,70.52
2018-03-30T00:15:44.671Z,69.46
2018-03-30T00:20:45.627Z,68.58
2018-03-30T00:25:46.588Z,68.96
2018-03-30T00:30:47.566Z,68.87
2018-03-30T00:35:48.509Z,68.62
2018-03-30T00:40:49.460Z,68.25
2018-03-30T00:45:50.421Z,68.01
2018-03-30T00:50:51.416Z,68.25
2018-03-30T00:55:52.403Z,68.60
2018-03-30T01:00:53.353Z,67.96
2018-03-30T01:05:54.312Z,68.10
2018-03-30T01:10:55.264Z,67.48
2018-03-30T01:15:56.217Z,67.56
2018-03-30T01:20:57.148Z,67.52
2018-03-30T01:25:58.126Z,66.80
2018-03-30T01:30:59.091Z,67.06
2018-03-30T01:36:00.033Z,67.41
2018-03-30T01:41:00.972Z,67.47
2018-03-30T01:46:01.936Z,68.10
2018-03-30T01:51:02.907Z,67.75
2018-03-30T01:56:03.909Z,72.26
2018-03-30T02:01:04.886Z,69.80
2018-03-30T02:06:05.826Z,68.75
2018-03-30T02:11:06.766Z,68.26
2018-03-30T02:16:07.745Z,67.90
2018-03-30T02:21:08.710Z,68.29
2018-03-30T02:26:09.654Z,68.25
2018-03-30T02:31:10.608Z,68.35
2018-03-30T02:36:11.560Z,68.64
2018-03-30T02:41:12.518Z,68.57
2018-03-30T02:46:13.476Z,68.32
2018-03-30T02:51:14.428Z,68.95
2018-03-30T02:56:15.414Z,69.28
2018-03-30T03:01:16.366Z,68.49
2018-03-30T03:06:17.319Z,68.14
2018-03-30T03:11:18.261Z,68.35
2018-03-30T03:16:19.223Z,68.50
2018-03-30T03:21:20.173Z,68.64
2018-03-30T03:26:21.141Z,68.33
2018-03-30T03:31:22.094Z,68.51
2018-03-30T03:36:23.049Z,68.24
2018-03-30T03:41:23.980Z,68.19
2018-03-30T03:46:24.954Z,68.09
2018-03-30T03:51:25.904Z,68.37
2018-03-30T03:56:26.915Z,68.60
2018-03-30T04:01:27.856Z,69.07
2018-03-30T04:06:28.808Z,69.28
2018-03-30T04:11:29.745Z,69.29
2018-03-30T04:16:30.698Z,69.29
2018-03-30T04:21:31.650Z,69.63
2018-03-30T04:26:32.602Z,69.51
2018-03-30T04:31:33.549Z,69.48
2018-03-30T04:36:34.491Z,69.72
2018-03-30T04:41:35.417Z,69.50
2018-03-30T04:46:36.375Z,70.35
2018-03-30T04:51:37.344Z,70.93
2018-03-30T04:56:38.321Z,70.35
2018-03-30T05:01:39.276Z,69.86
2018-03-30T05:06:40.225Z,70.01
2018-03-30T05:11:41.157Z,69.82
2018-03-30T05:16:42.105Z,69.94
2018-03-30T05:21:43.074Z,70.07
2018-03-30T05:26:44.021Z,69.94
2018-03-30T05:31:45.004Z,70.07
2018-03-30T05:36:45.967Z,69.89
2018-03-30T05:41:46.915Z,71.31
2018-03-30T05:46:47.880Z,69.34
2018-03-30T05:51:48.844Z,69.28
2018-03-30T05:56:49.834Z,69.06
2018-03-30T06:01:50.789Z,69.11
2018-03-30T06:06:51.736Z,68.73
2018-03-30T06:11:52.707Z,67.99
2018-03-30T06:16:53.653Z,68.44
2018-03-30T06:21:54.620Z,67.89
2018-03-30T06:26:55.595Z,66.46
2018-03-30T06:31:56.568Z,66.09
2018-03-30T06:36:57.542Z,67.05
2018-03-30T06:41:58.504Z,67.21
2018-03-30T06:46:59.834Z,65.15
2018-03-30T06:52:00.837Z,65.20
2018-03-30T06:57:02.866Z,66.04
2018-03-30T07:02:03.841Z,67.25
2018-03-30T07:07:04.796Z,65.30
2018-03-30T07:12:05.767Z,64.91
2018-03-30T07:17:06.745Z,63.80
2018-03-30T07:22:07.691Z,64.29
2018-03-30T07:27:08.662Z,63.91
2018-03-30T07:32:09.609Z,63.45
2018-03-30T07:37:10.571Z,61.93
2018-03-30T07:42:11.537Z,61.33
2018-03-30T07:47:12.551Z,61.49
2018-03-30T07:52:13.490Z,61.48
2018-03-30T07:57:14.479Z,60.59
2018-03-30T08:02:15.464Z,59.06
2018-03-30T08:07:16.437Z,59.12
2018-03-30T08:12:17.418Z,58.35
2018-03-30T08:17:18.465Z,56.92
2018-03-30T08:22:19.442Z,56.92
2018-03-30T08:27:20.380Z,56.91
2018-03-30T08:32:21.397Z,56.24
